Time;durP1;ratioP1;P1;durP2;ratioP2;P2;SDS_P1;SDS_P2;PMS_P1;PMS_P2;Temp;Humidity;BMP_temperature;BMP_pressure;BME280_temperature;BME280_humidity;BME280_pressure;Samples;Min_cycle;Max_cycle;Signal;HPM_P1;HPM_P2
2023/02/26 00:01:14;;;;;;;3.40;1.63;;;;;;;;;;5015002;28;20747;-82
2023/02/26 00:03:41;;;;;;;4.47;1.52;;;;;;;;;;5015433;28;20213;-82
2023/02/26 00:06:09;;;;;;;1.60;1.50;;;;;;;;;;5014788;28;20237;-80
2023/02/26 00:08:37;;;;;;;3.40;1.88;;;;;;;;;;5013528;28;20211;-79
2023/02/26 00:11:09;;;;;;;1.83;1.70;;;;;;;;;;5015292;28;20290;-81
2023/02/26 00:13:39;;;;;;;3.25;1.60;;;;;;;;;;5015448;28;20638;-78
2023/02/26 00:16:24;;;;;;;4.38;1.83;;;;;;;;;;5015185;28;20241;-81
2023/02/26 00:18:52;;;;;;;2.05;1.50;;;;;;;;;;5014121;28;20203;-81
2023/02/26 00:21:22;;;;;;;4.13;2.28;;;;;;;;;;5014695;28;20203;-82
2023/02/26 00:23:50;;;;;;;2.38;1.77;;;;;;;;;;5013031;28;20225;-78
2023/02/26 00:26:19;;;;;;;1.85;1.42;;;;;;;;;;5015300;28;20235;-80
2023/02/26 00:28:47;;;;;;;2.80;1.77;;;;;;;;;;5013634;28;20851;-81
2023/02/26 00:31:16;;;;;;;2.20;1.80;;;;;;;;;;5013489;28;20205;-80
2023/02/26 00:33:45;;;;;;;2.30;1.73;;;;;;;;;;5014090;28;20294;-80
2023/02/26 00:36:22;;;;;;;3.00;2.28;;;;;;;;;;5014752;28;20231;-80
2023/02/26 00:39:02;;;;;;;2.40;1.92;;;;;;;;;;5014204;28;20209;-81
2023/02/26 00:41:32;;;;;;;6.20;2.03;;;;;;;;;;5006712;28;20203;-81
2023/02/26 00:44:00;;;;;;;4.35;2.00;;;;;;;;;;4995005;28;20648;-79
2023/02/26 00:46:39;;;;;;;2.03;1.52;;;;;;;;;;4995278;28;20242;-79
2023/02/26 00:49:18;;;;;;;4.13;1.60;;;;;;;;;;4994717;28;20322;-81
2023/02/26 00:51:51;;;;;;;3.80;1.90;;;;;;;;;;4994574;28;20306;-82
2023/02/26 00:54:21;;;;;;;1.80;1.50;;;;;;;;;;4994966;28;20214;-81
2023/02/26 00:56:51;;;;;;;3.88;1.77;;;;;;;;;;5014614;28;20225;-81
2023/02/26 00:59:19;;;;;;;3.88;1.80;;;;;;;;;;5026527;28;20225;-80
2023/02/26 01:01:47;;;;;;;3.03;1.77;;;;;;;;;;5032807;28;20206;-80
2023/02/26 01:04:17;;;;;;;3.97;2.35;;;;;;;;;;5032685;28;20205;-80
2023/02/26 01:06:46;;;;;;;2.70;1.70;;;;;;;;;;5032086;28;20237;-81
2023/02/26 01:09:21;;;;;;;5.03;1.85;;;;;;;;;;5032992;28;20206;-81
2023/02/26 01:11:51;;;;;;;2.40;2.05;;;;;;;;;;5034385;28;20241;-81
2023/02/26 01:14:20;;;;;;;14.98;2.38;;;;;;;;;;5034107;28;20288;-81
2023/02/26 01:16:53;;;;;;;2.35;2.15;;;;;;;;;;5033645;28;20722;-81
2023/02/26 01:19:29;;;;;;;3.17;1.65;;;;;;;;;;5033373;28;20234;-81
2023/02/26 01:22:04;;;;;;;2.08;1.73;;;;;;;;;;5034171;28;20591;-79
2023/02/26 01:24:32;;;;;;;2.90;1.73;;;;;;;;;;5032896;28;20292;-79
2023/02/26 01:27:01;;;;;;;3.72;2.42;;;;;;;;;;5017134;28;20235;-81
2023/02/26 01:29:29;;;;;;;2.72;1.50;;;;;;;;;;5013149;28;20203;-79
2023/02/26 01:32:05;;;;;;;3.78;1.30;;;;;;;;;;5013223;28;20537;-79
2023/02/26 01:34:37;;;;;;;1.83;1.52;;;;;;;;;;5013695;28;20203;-81
2023/02/26 01:37:14;;;;;;;2.13;1.42;;;;;;;;;;5013860;28;20221;-81
2023/02/26 01:39:47;;;;;;;4.20;1.75;;;;;;;;;;5012781;28;20205;-81
2023/02/26 01:42:18;;;;;;;1.38;1.30;;;;;;;;;;5013685;28;20209;-81
2023/02/26 01:44:58;;;;;;;2.75;1.48;;;;;;;;;;5013574;28;20207;-80
2023/02/26 01:47:30;;;;;;;2.40;1.35;;;;;;;;;;5043285;22;20233;-86
2023/02/26 01:50:02;;;;;;;4.72;1.42;;;;;;;;;;5055589;28;20273;-87
2023/02/26 01:53:21;;;;;;;1.40;1.30;;;;;;;;;;5056251;28;20198;-88
2023/02/26 01:55:53;;;;;;;2.55;1.45;;;;;;;;;;5044646;28;20721;-87
2023/02/26 01:58:22;;;;;;;2.17;1.10;;;;;;;;;;5042654;28;20882;-85
2023/02/26 02:00:50;;;;;;;2.00;1.83;;;;;;;;;;5056415;28;20284;-86
2023/02/26 02:03:19;;;;;;;1.50;1.40;;;;;;;;;;5060755;22;20229;-84
2023/02/26 02:05:51;;;;;;;3.42;1.27;;;;;;;;;;5055086;28;20272;-84
2023/02/26 02:08:18;;;;;;;2.78;1.80;;;;;;;;;;5055161;28;20292;-84
2023/02/26 02:10:48;;;;;;;1.70;1.20;;;;;;;;;;5054956;28;20291;-85
2023/02/26 02:13:27;;;;;;;3.40;1.60;;;;;;;;;;5055534;28;20351;-83
2023/02/26 02:16:07;;;;;;;1.30;1.20;;;;;;;;;;5055129;28;20193;-85
2023/02/26 02:18:42;;;;;;;1.45;1.33;;;;;;;;;;5055317;28;20676;-84
2023/02/26 02:21:50;;;;;;;1.92;1.50;;;;;;;;;;5055151;28;20202;-83
2023/02/26 02:24:29;;;;;;;1.75;1.38;;;;;;;;;;4989985;28;20268;-83
2023/02/26 02:27:08;;;;;;;14.00;1.77;;;;;;;;;;5055430;28;20269;-83
2023/02/26 02:30:03;;;;;;;1.50;1.40;;;;;;;;;;5053987;28;20589;-84
2023/02/26 02:32:36;;;;;;;2.28;1.50;;;;;;;;;;5058630;28;20217;-83
2023/02/26 02:35:10;;;;;;;1.70;1.40;;;;;;;;;;5059535;28;20309;-84
2023/02/26 02:37:41;;;;;;;1.48;1.38;;;;;;;;;;5059626;28;20288;-84
2023/02/26 02:40:12;;;;;;;1.42;1.27;;;;;;;;;;5059118;28;20295;-83
2023/02/26 02:42:44;;;;;;;2.00;1.20;;;;;;;;;;5060317;28;20297;-84
2023/02/26 02:45:18;;;;;;;2.53;1.30;;;;;;;;;;5059949;28;20213;-85
2023/02/26 02:47:51;;;;;;;3.75;1.50;;;;;;;;;;5059654;28;20229;-84
2023/02/26 02:50:25;;;;;;;1.98;1.35;;;;;;;;;;5059162;28;20662;-83
2023/02/26 02:53:01;;;;;;;1.50;1.10;;;;;;;;;;5059699;28;20249;-82
2023/02/26 02:55:32;;;;;;;3.20;1.88;;;;;;;;;;5059934;28;20206;-85
2023/02/26 02:58:03;;;;;;;1.52;1.33;;;;;;;;;;5058740;28;20700;-83
2023/02/26 03:00:33;;;;;;;4.03;1.83;;;;;;;;;;5059144;28;20285;-84
2023/02/26 03:03:07;;;;;;;2.17;1.50;;;;;;;;;;5059117;28;20230;-83
2023/02/26 03:05:34;;;;;;;1.95;1.33;;;;;;;;;;5058935;28;20284;-85
2023/02/26 03:08:06;;;;;;;1.67;1.58;;;;;;;;;;5058263;28;20253;-84
2023/02/26 03:10:34;;;;;;;3.08;1.65;;;;;;;;;;5058997;28;20182;-83
2023/02/26 03:13:02;;;;;;;4.07;1.75;;;;;;;;;;5058584;28;20249;-83
2023/02/26 03:15:38;;;;;;;3.13;1.75;;;;;;;;;;5058437;28;20289;-83
2023/02/26 03:18:18;;;;;;;6.05;1.52;;;;;;;;;;5058388;28;20277;-82
2023/02/26 03:21:08;;;;;;;3.65;1.75;;;;;;;;;;5058210;28;20582;-82
2023/02/26 03:23:40;;;;;;;2.33;1.50;;;;;;;;;;5058580;28;20200;-83
2023/02/26 03:26:12;;;;;;;2.17;1.40;;;;;;;;;;5057713;28;20669;-85
2023/02/26 03:28:45;;;;;;;3.33;1.70;;;;;;;;;;5058113;28;20568;-83
2023/02/26 03:31:18;;;;;;;2.65;1.40;;;;;;;;;;5058976;28;20285;-82
2023/02/26 03:33:53;;;;;;;2.78;1.65;;;;;;;;;;5058220;28;20251;-83
2023/02/26 03:36:26;;;;;;;1.75;1.60;;;;;;;;;;5057998;28;20205;-85
2023/02/26 03:38:57;;;;;;;2.85;1.48;;;;;;;;;;5057893;28;20218;-83
2023/02/26 03:41:29;;;;;;;2.92;1.52;;;;;;;;;;5058229;28;20197;-85
2023/02/26 03:44:01;;;;;;;1.65;1.55;;;;;;;;;;5055591;28;20224;-86
2023/02/26 03:46:33;;;;;;;1.88;1.42;;;;;;;;;;5057294;28;20194;-84
2023/02/26 03:49:07;;;;;;;4.28;2.28;;;;;;;;;;5057350;28;20673;-85
2023/02/26 03:51:36;;;;;;;5.43;2.03;;;;;;;;;;5056794;28;20259;-86
2023/02/26 03:54:08;;;;;;;2.67;2.00;;;;;;;;;;5056666;28;20630;-85
2023/02/26 03:56:40;;;;;;;2.42;2.00;;;;;;;;;;5056988;28;20190;-86
2023/02/26 03:59:07;;;;;;;3.25;2.15;;;;;;;;;;5056675;28;20693;-85
2023/02/26 04:01:39;;;;;;;2.30;2.10;;;;;;;;;;5056578;28;20311;-84
2023/02/26 04:04:12;;;;;;;6.05;2.20;;;;;;;;;;5056828;28;20236;-84
2023/02/26 04:06:40;;;;;;;2.42;2.22;;;;;;;;;;5055985;28;20661;-84
2023/02/26 04:09:08;;;;;;;2.20;2.00;;;;;;;;;;5056108;28;20305;-84
2023/02/26 04:11:36;;;;;;;1.90;1.80;;;;;;;;;;5055939;28;20629;-85
2023/02/26 04:14:04;;;;;;;1.77;1.65;;;;;;;;;;5055635;28;20288;-87
2023/02/26 04:16:31;;;;;;;2.25;2.05;;;;;;;;;;5055709;28;20235;-84
2023/02/26 04:18:59;;;;;;;1.92;1.50;;;;;;;;;;5056164;28;20232;-84
2023/02/26 04:21:27;;;;;;;1.75;1.65;;;;;;;;;;5057158;28;20633;-83
2023/02/26 04:23:55;;;;;;;2.60;2.42;;;;;;;;;;5056655;28;20595;-84
2023/02/26 04:26:22;;;;;;;2.45;2.20;;;;;;;;;;5043126;28;20303;-86
2023/02/26 04:28:50;;;;;;;2.20;1.98;;;;;;;;;;5035935;28;20309;-86
2023/02/26 04:31:17;;;;;;;2.78;2.15;;;;;;;;;;5036344;28;20297;-84
2023/02/26 04:33:45;;;;;;;5.70;2.65;;;;;;;;;;5037058;28;20287;-85
2023/02/26 04:36:12;;;;;;;3.13;1.65;;;;;;;;;;5036962;28;20650;-85
2023/02/26 04:38:41;;;;;;;2.63;2.42;;;;;;;;;;5036291;28;20285;-84
2023/02/26 04:41:09;;;;;;;2.25;2.05;;;;;;;;;;5049812;28;20293;-85
2023/02/26 04:43:37;;;;;;;3.47;1.83;;;;;;;;;;5057193;28;20610;-84
2023/02/26 04:46:05;;;;;;;3.20;2.90;;;;;;;;;;5057268;28;20255;-84
2023/02/26 04:48:32;;;;;;;6.97;2.22;;;;;;;;;;5056143;28;20316;-86
2023/02/26 04:51:00;;;;;;;2.13;1.60;;;;;;;;;;5056112;28;20288;-83
2023/02/26 04:53:27;;;;;;;4.25;1.90;;;;;;;;;;5056161;28;20313;-84
2023/02/26 04:55:56;;;;;;;6.40;2.40;;;;;;;;;;5049410;28;20240;-86
2023/02/26 04:58:24;;;;;;;3.38;2.63;;;;;;;;;;5036457;28;20289;-86
2023/02/26 05:00:53;;;;;;;1.75;1.65;;;;;;;;;;5036834;28;20490;-85
2023/02/26 05:03:21;;;;;;;7.13;2.63;;;;;;;;;;5036215;28;20603;-85
2023/02/26 05:05:49;;;;;;;3.00;2.80;;;;;;;;;;5035642;28;20574;-84
2023/02/26 05:08:17;;;;;;;2.65;2.05;;;;;;;;;;5034879;28;20254;-83
2023/02/26 05:10:45;;;;;;;3.03;2.78;;;;;;;;;;5035773;28;20285;-84
2023/02/26 05:13:14;;;;;;;4.00;2.45;;;;;;;;;;5035030;28;20222;-84
2023/02/26 05:15:41;;;;;;;3.10;2.85;;;;;;;;;;5036145;28;20269;-85
2023/02/26 05:18:08;;;;;;;4.10;2.05;;;;;;;;;;5035175;28;20298;-82
2023/02/26 05:20:36;;;;;;;4.93;2.60;;;;;;;;;;5035464;28;20651;-84
2023/02/26 05:23:04;;;;;;;3.95;2.28;;;;;;;;;;5035650;28;20758;-84
2023/02/26 05:25:32;;;;;;;3.40;2.25;;;;;;;;;;5039194;28;20205;-83
2023/02/26 05:27:59;;;;;;;2.60;2.33;;;;;;;;;;5055320;28;20201;-85
2023/02/26 05:30:28;;;;;;;5.13;2.13;;;;;;;;;;5055497;28;20265;-84
2023/02/26 05:32:55;;;;;;;3.00;2.42;;;;;;;;;;5055767;28;20225;-84
2023/02/26 05:35:23;;;;;;;3.05;2.13;;;;;;;;;;5055444;28;20572;-83
2023/02/26 05:37:50;;;;;;;2.22;2.05;;;;;;;;;;5055346;28;20642;-84
2023/02/26 05:40:18;;;;;;;4.95;2.58;;;;;;;;;;5053030;28;20265;-86
2023/02/26 05:42:45;;;;;;;1.88;1.70;;;;;;;;;;5054770;28;20221;-85
2023/02/26 05:45:13;;;;;;;4.13;2.30;;;;;;;;;;5055282;28;20272;-84
2023/02/26 05:47:42;;;;;;;3.55;2.65;;;;;;;;;;5055262;28;20292;-86
2023/02/26 05:50:11;;;;;;;2.97;1.80;;;;;;;;;;5054906;28;20336;-84
2023/02/26 05:52:39;;;;;;;2.25;1.95;;;;;;;;;;5054890;28;20224;-84
2023/02/26 05:55:09;;;;;;;3.85;2.00;;;;;;;;;;5054936;28;20198;-86
2023/02/26 05:57:36;;;;;;;2.33;2.00;;;;;;;;;;5055151;28;20236;-86
2023/02/26 06:00:06;;;;;;;3.70;2.20;;;;;;;;;;5054959;28;20201;-85
2023/02/26 06:02:33;;;;;;;2.97;1.90;;;;;;;;;;5055610;28;20230;-83
2023/02/26 06:05:02;;;;;;;2.05;1.83;;;;;;;;;;5055432;28;20301;-84
2023/02/26 06:07:29;;;;;;;4.05;2.33;;;;;;;;;;5054315;28;20197;-83
2023/02/26 06:09:57;;;;;;;2.30;1.98;;;;;;;;;;5054868;28;20225;-86
2023/02/26 06:12:24;;;;;;;4.03;2.13;;;;;;;;;;5055643;28;20713;-85
2023/02/26 06:14:52;;;;;;;3.28;2.22;;;;;;;;;;5056207;28;20297;-83
2023/02/26 06:17:19;;;;;;;1.70;1.60;;;;;;;;;;5056199;28;20292;-83
2023/02/26 06:19:47;;;;;;;1.70;1.60;;;;;;;;;;5055908;28;20229;-84
2023/02/26 06:22:15;;;;;;;4.63;2.30;;;;;;;;;;5055224;28;20264;-82
2023/02/26 06:24:43;;;;;;;2.30;1.90;;;;;;;;;;5056515;28;20229;-84
2023/02/26 06:27:10;;;;;;;2.90;1.73;;;;;;;;;;5054909;28;20205;-84
2023/02/26 06:29:38;;;;;;;2.42;2.22;;;;;;;;;;5054449;28;20317;-85
2023/02/26 06:32:05;;;;;;;3.63;2.22;;;;;;;;;;5055095;28;20299;-83
2023/02/26 06:34:34;;;;;;;5.40;2.05;;;;;;;;;;5055192;28;20212;-85
2023/02/26 06:37:01;;;;;;;2.00;1.90;;;;;;;;;;5055370;28;20292;-83
2023/02/26 06:39:30;;;;;;;2.40;1.75;;;;;;;;;;5053968;28;20229;-82
2023/02/26 06:41:58;;;;;;;2.17;1.75;;;;;;;;;;5054532;28;20228;-84
2023/02/26 06:44:25;;;;;;;2.50;2.10;;;;;;;;;;5054578;28;20292;-84
2023/02/26 06:46:53;;;;;;;3.20;1.92;;;;;;;;;;5054912;28;20197;-83
2023/02/26 06:49:20;;;;;;;2.60;2.00;;;;;;;;;;5054340;28;20231;-84
2023/02/26 06:51:47;;;;;;;2.42;2.22;;;;;;;;;;5054409;28;20309;-84
2023/02/26 06:54:15;;;;;;;2.22;1.88;;;;;;;;;;5054100;28;20739;-84
2023/02/26 06:56:44;;;;;;;4.38;2.60;;;;;;;;;;5053221;28;20296;-83
2023/02/26 06:59:11;;;;;;;2.67;1.92;;;;;;;;;;5053245;28;20635;-84
2023/02/26 07:01:39;;;;;;;1.88;1.70;;;;;;;;;;5053347;28;20239;-83
2023/02/26 07:04:06;;;;;;;3.70;1.75;;;;;;;;;;5053705;28;20301;-86
2023/02/26 07:06:34;;;;;;;1.70;1.60;;;;;;;;;;5053562;28;20718;-85
2023/02/26 07:09:01;;;;;;;2.15;1.95;;;;;;;;;;5053746;28;20707;-85
2023/02/26 07:11:28;;;;;;;2.67;1.90;;;;;;;;;;5054279;28;20257;-84
2023/02/26 07:13:57;;;;;;;2.25;2.05;;;;;;;;;;5053741;28;20284;-86
2023/02/26 07:16:25;;;;;;;2.72;2.13;;;;;;;;;;5053964;28;20296;-85
2023/02/26 07:18:52;;;;;;;5.47;2.40;;;;;;;;;;5056248;28;20292;-85
2023/02/26 07:21:20;;;;;;;4.72;2.30;;;;;;;;;;5057729;28;20280;-85
2023/02/26 07:23:47;;;;;;;10.98;2.83;;;;;;;;;;5057627;28;20206;-85
2023/02/26 07:26:16;;;;;;;1.83;1.73;;;;;;;;;;5056107;28;20288;-86
2023/02/26 07:28:43;;;;;;;5.18;2.03;;;;;;;;;;5056578;28;20202;-84
2023/02/26 07:31:12;;;;;;;2.03;1.83;;;;;;;;;;5056864;28;20309;-85
2023/02/26 07:33:40;;;;;;;3.22;2.65;;;;;;;;;;5056881;28;20297;-84
2023/02/26 07:36:08;;;;;;;2.30;1.85;;;;;;;;;;5056545;28;20644;-83
2023/02/26 07:38:35;;;;;;;2.13;1.88;;;;;;;;;;5054498;28;20738;-82
2023/02/26 07:41:02;;;;;;;3.72;2.00;;;;;;;;;;5054894;28;20285;-84
2023/02/26 07:43:30;;;;;;;4.75;2.42;;;;;;;;;;5055102;28;20228;-82
2023/02/26 07:45:57;;;;;;;4.03;2.15;;;;;;;;;;5054893;28;20737;-83
2023/02/26 07:48:26;;;;;;;2.47;1.95;;;;;;;;;;5053050;28;20210;-83
2023/02/26 07:50:54;;;;;;;2.67;1.95;;;;;;;;;;5054820;28;20261;-82
2023/02/26 07:53:22;;;;;;;2.70;2.10;;;;;;;;;;5054343;28;20228;-81
2023/02/26 07:55:50;;;;;;;2.45;2.25;;;;;;;;;;5054706;28;20650;-82
2023/02/26 07:58:18;;;;;;;3.20;2.45;;;;;;;;;;5054567;28;20587;-82
2023/02/26 08:00:45;;;;;;;1.88;1.77;;;;;;;;;;5054389;28;20206;-80
2023/02/26 08:03:14;;;;;;;2.17;2.00;;;;;;;;;;5070821;22;20234;-82
2023/02/26 08:05:43;;;;;;;2.35;2.05;;;;;;;;;;5053926;28;20666;-84
2023/02/26 08:08:10;;;;;;;2.22;1.83;;;;;;;;;;5053142;28;20260;-84
2023/02/26 08:10:40;;;;;;;6.10;2.63;;;;;;;;;;5058132;28;20640;-86
2023/02/26 08:13:08;;;;;;;3.55;2.05;;;;;;;;;;5059441;28;20206;-87
2023/02/26 08:15:42;;;;;;;2.85;1.50;;;;;;;;;;5057785;28;20649;-86
2023/02/26 08:18:10;;;;;;;3.65;1.95;;;;;;;;;;5055877;28;20233;-85
2023/02/26 08:20:37;;;;;;;4.93;3.03;;;;;;;;;;5055342;28;20292;-85
2023/02/26 08:23:06;;;;;;;3.58;2.05;;;;;;;;;;5057781;28;20237;-84
2023/02/26 08:25:34;;;;;;;3.47;2.33;;;;;;;;;;5060166;28;20744;-85
2023/02/26 08:28:02;;;;;;;2.72;2.13;;;;;;;;;;5068898;28;20289;-83
2023/02/26 08:30:29;;;;;;;4.35;2.67;;;;;;;;;;5076482;28;20320;-84
2023/02/26 08:32:57;;;;;;;4.85;1.80;;;;;;;;;;5076082;28;20520;-86
2023/02/26 08:35:25;;;;;;;1.88;1.77;;;;;;;;;;5075683;28;20189;-84
2023/02/26 08:37:53;;;;;;;2.45;2.25;;;;;;;;;;5076700;28;20304;-85
2023/02/26 08:40:22;;;;;;;2.90;2.05;;;;;;;;;;5075511;28;20290;-85
2023/02/26 08:42:49;;;;;;;2.15;2.00;;;;;;;;;;5077171;28;20285;-87
2023/02/26 08:45:17;;;;;;;2.80;1.55;;;;;;;;;;5077548;28;20227;-87
2023/02/26 08:47:44;;;;;;;3.97;1.67;;;;;;;;;;5076946;28;20300;-87
2023/02/26 08:50:13;;;;;;;2.08;1.40;;;;;;;;;;5075054;28;20288;-85
2023/02/26 08:52:40;;;;;;;1.40;1.40;;;;;;;;;;5075922;28;20284;-84
2023/02/26 08:55:09;;;;;;;1.35;1.25;;;;;;;;;;5075154;28;20203;-84
2023/02/26 08:57:38;;;;;;;2.45;1.27;;;;;;;;;;5074548;28;20227;-84
2023/02/26 09:00:09;;;;;;;1.73;1.23;;;;;;;;;;5073776;28;20564;-84
2023/02/26 09:02:37;;;;;;;0.95;0.95;;;;;;;;;;5075495;28;20205;-85
2023/02/26 09:05:05;;;;;;;1.45;1.20;;;;;;;;;;5075082;28;20689;-83
2023/02/26 09:07:32;;;;;;;1.70;1.60;;;;;;;;;;5075215;28;20710;-84
2023/02/26 09:10:00;;;;;;;2.50;1.90;;;;;;;;;;5074653;28;20311;-85
2023/02/26 09:12:28;;;;;;;3.88;3.05;;;;;;;;;;5075281;28;20253;-83
2023/02/26 09:14:57;;;;;;;4.18;3.35;;;;;;;;;;5074773;28;20235;-83
2023/02/26 09:17:25;;;;;;;8.05;6.35;;;;;;;;;;5073982;28;20225;-83
2023/02/26 09:19:53;;;;;;;6.72;4.32;;;;;;;;;;5071554;28;20220;-85
2023/02/26 09:22:20;;;;;;;3.58;3.00;;;;;;;;;;5074653;28;20252;-85
2023/02/26 09:24:48;;;;;;;5.07;3.00;;;;;;;;;;5076552;28;20280;-84
2023/02/26 09:27:15;;;;;;;5.88;4.03;;;;;;;;;;5074135;28;20228;-85
2023/02/26 09:29:43;;;;;;;2.75;2.35;;;;;;;;;;5073660;28;20285;-86
2023/02/26 09:32:12;;;;;;;6.90;5.75;;;;;;;;;;5073829;28;20231;-86
2023/02/26 09:34:40;;;;;;;7.82;4.43;;;;;;;;;;5073703;28;20295;-85
2023/02/26 09:37:09;;;;;;;2.30;2.10;;;;;;;;;;5073716;28;20227;-86
2023/02/26 09:39:37;;;;;;;4.32;2.35;;;;;;;;;;5072781;28;20196;-82
2023/02/26 09:42:14;;;;;;;4.05;2.08;;;;;;;;;;5073572;28;20223;-86
2023/02/26 09:44:42;;;;;;;4.93;4.53;;;;;;;;;;5074050;28;20657;-86
2023/02/26 09:47:18;;;;;;;3.13;2.83;;;;;;;;;;5074081;28;20682;-85
2023/02/26 09:49:53;;;;;;;1.80;1.70;;;;;;;;;;5073337;28;20211;-85
2023/02/26 09:55:32;;;;;;;3.00;2.70;;;;;;;;;;4959432;28;20692;-84
2023/02/26 09:58:02;;;;;;;1.35;1.17;;;;;;;;;;5052865;28;20245;-83
2023/02/26 10:00:36;;;;;;;2.63;2.10;;;;;;;;;;5054444;28;20217;-84
2023/02/26 10:03:18;;;;;;;2.00;1.40;;;;;;;;;;5053885;28;20208;-85
2023/02/26 10:06:06;;;;;;;1.60;1.13;;;;;;;;;;5052659;28;20198;-84
2023/02/26 10:08:39;;;;;;;1.10;1.10;;;;;;;;;;5051986;28;20241;-84
2023/02/26 10:11:11;;;;;;;1.42;1.33;;;;;;;;;;5052912;28;20225;-83
2023/02/26 10:13:44;;;;;;;0.98;0.98;;;;;;;;;;5053150;28;20193;-84
2023/02/26 10:16:14;;;;;;;1.00;1.00;;;;;;;;;;5053044;28;20216;-85
2023/02/26 10:18:47;;;;;;;1.67;0.98;;;;;;;;;;5050886;28;20228;-86
2023/02/26 10:21:20;;;;;;;1.52;1.42;;;;;;;;;;5059772;28;20757;-87
2023/02/26 10:23:55;;;;;;;3.33;1.88;;;;;;;;;;5059146;28;20261;-86
2023/02/26 10:26:27;;;;;;;3.95;2.90;;;;;;;;;;5069204;28;20207;-86
2023/02/26 10:29:02;;;;;;;2.95;2.20;;;;;;;;;;5076914;28;20307;-86
2023/02/26 10:31:35;;;;;;;1.58;1.48;;;;;;;;;;5073087;28;20228;-85
2023/02/26 10:34:25;;;;;;;1.40;1.30;;;;;;;;;;5072776;28;20287;-86
2023/02/26 10:37:02;;;;;;;1.45;1.23;;;;;;;;;;5072280;28;20224;-85
2023/02/26 10:39:38;;;;;;;1.35;1.25;;;;;;;;;;5071931;28;20623;-85
2023/02/26 10:42:13;;;;;;;1.13;1.10;;;;;;;;;;5072263;28;20203;-85
2023/02/26 10:44:53;;;;;;;1.60;1.35;;;;;;;;;;5072887;28;20200;-86
2023/02/26 10:47:28;;;;;;;1.10;1.10;;;;;;;;;;5072513;28;20308;-85
2023/02/26 10:50:01;;;;;;;1.27;0.73;;;;;;;;;;5072489;28;20669;-87
2023/02/26 10:52:33;;;;;;;1.52;1.00;;;;;;;;;;5075013;28;20818;-86
2023/02/26 11:00:41;;;;;;;1.10;1.00;;;;;;;;;;5079241;28;20266;-85
2023/02/26 11:03:13;;;;;;;1.17;1.08;;;;;;;;;;5080712;28;20659;-86
2023/02/26 11:05:42;;;;;;;1.23;1.00;;;;;;;;;;5080710;28;20288;-87
2023/02/26 11:08:14;;;;;;;1.17;1.08;;;;;;;;;;5079956;28;20211;-86
2023/02/26 11:10:48;;;;;;;1.25;1.15;;;;;;;;;;5080852;28;20205;-86
2023/02/26 11:13:15;;;;;;;1.38;1.15;;;;;;;;;;5080627;28;20231;-86
2023/02/26 11:15:44;;;;;;;1.15;1.10;;;;;;;;;;5078684;28;20284;-86
2023/02/26 11:18:17;;;;;;;1.10;1.08;;;;;;;;;;5079181;28;20283;-86
2023/02/26 11:20:47;;;;;;;1.90;1.40;;;;;;;;;;5058877;28;20220;-85
2023/02/26 11:23:20;;;;;;;7.72;4.85;;;;;;;;;;5058699;28;20274;-86
2023/02/26 11:25:51;;;;;;;3.90;3.60;;;;;;;;;;5064449;28;20232;-86
2023/02/26 11:28:23;;;;;;;2.83;2.08;;;;;;;;;;5078923;28;20195;-85
2023/02/26 11:30:53;;;;;;;2.03;1.70;;;;;;;;;;5078287;28;20286;-86
2023/02/26 11:33:24;;;;;;;3.17;2.70;;;;;;;;;;5078476;28;20236;-85
2023/02/26 11:36:00;;;;;;;2.13;1.85;;;;;;;;;;5079064;28;20193;-86
2023/02/26 11:38:29;;;;;;;3.50;1.65;;;;;;;;;;5078378;28;20200;-85
2023/02/26 11:40:58;;;;;;;1.38;1.27;;;;;;;;;;5078621;28;20300;-85
2023/02/26 11:43:34;;;;;;;2.05;1.02;;;;;;;;;;5078417;28;20249;-85
2023/02/26 11:46:04;;;;;;;1.45;1.33;;;;;;;;;;5078452;28;20279;-85
2023/02/26 11:48:40;;;;;;;1.25;1.15;;;;;;;;;;5078673;28;20548;-85
2023/02/26 11:51:12;;;;;;;3.03;2.72;;;;;;;;;;5077966;28;20210;-85
2023/02/26 11:53:48;;;;;;;1.85;1.67;;;;;;;;;;5078478;28;20742;-85
2023/02/26 11:56:25;;;;;;;1.20;1.00;;;;;;;;;;5078342;28;20208;-86
2023/02/26 11:58:55;;;;;;;2.05;1.27;;;;;;;;;;5078282;28;20213;-86
2023/02/26 12:01:29;;;;;;;1.88;1.13;;;;;;;;;;5078689;28;20205;-86
2023/02/26 12:04:01;;;;;;;1.75;1.25;;;;;;;;;;5077876;28;20203;-86
2023/02/26 12:06:30;;;;;;;4.70;2.22;;;;;;;;;;5079064;28;20209;-86
2023/02/26 12:08:57;;;;;;;4.45;2.50;;;;;;;;;;5078091;28;20293;-86
2023/02/26 12:11:59;;;;;;;7.05;5.13;;;;;;;;;;5078056;28;20243;-86
2023/02/26 12:14:47;;;;;;;8.90;6.28;;;;;;;;;;5077738;28;20200;-86
2023/02/26 12:17:30;;;;;;;2.03;1.92;;;;;;;;;;5077671;28;20216;-86
2023/02/26 12:20:14;;;;;;;2.22;1.38;;;;;;;;;;5077236;28;20255;-86
2023/02/26 12:22:54;;;;;;;1.65;1.55;;;;;;;;;;5077973;28;20282;-85
2023/02/26 12:25:43;;;;;;;1.00;1.00;;;;;;;;;;5077337;28;20207;-85
2023/02/26 12:28:56;;;;;;;1.60;1.30;;;;;;;;;;5077072;28;20224;-86
2023/02/26 12:32:23;;;;;;;1.48;1.38;;;;;;;;;;5077428;28;20279;-86
2023/02/26 12:35:40;;;;;;;1.25;1.15;;;;;;;;;;5033189;28;20669;-86
2023/02/26 12:38:20;;;;;;;1.50;1.40;;;;;;;;;;5060998;28;20291;-87
2023/02/26 12:41:18;;;;;;;0.98;0.98;;;;;;;;;;5077356;28;20177;-85
2023/02/26 12:43:49;;;;;;;1.40;1.30;;;;;;;;;;5061076;28;20316;-85
2023/02/26 12:46:42;;;;;;;1.20;1.10;;;;;;;;;;5078729;28;20692;-84
2023/02/26 12:49:54;;;;;;;2.90;1.42;;;;;;;;;;5078118;28;20209;-85
2023/02/26 12:52:49;;;;;;;1.35;1.20;;;;;;;;;;5067669;28;20231;-85
2023/02/26 12:55:28;;;;;;;2.42;2.20;;;;;;;;;;5076954;28;20235;-85
2023/02/26 12:58:33;;;;;;;0.88;0.88;;;;;;;;;;5077243;28;20361;-84
2023/02/26 13:01:24;;;;;;;1.63;1.20;;;;;;;;;;5075405;28;20571;-84
2023/02/26 13:04:10;;;;;;;1.00;0.90;;;;;;;;;;5077428;28;20304;-85
2023/02/26 13:07:09;;;;;;;1.00;1.00;;;;;;;;;;5073858;28;20227;-88
2023/02/26 13:09:58;;;;;;;1.02;0.98;;;;;;;;;;5070879;28;20232;-87
2023/02/26 13:12:46;;;;;;;2.00;1.85;;;;;;;;;;5073366;28;20228;-89
2023/02/26 13:16:02;;;;;;;2.10;1.50;;;;;;;;;;5073299;28;20296;-90
2023/02/26 13:18:41;;;;;;;3.22;1.88;;;;;;;;;;5055207;28;20291;-87
2023/02/26 13:21:20;;;;;;;4.35;3.97;;;;;;;;;;5072833;28;20216;-87
2023/02/26 13:23:51;;;;;;;2.78;1.70;;;;;;;;;;5073344;28;20312;-87
2023/02/26 13:26:31;;;;;;;1.35;1.08;;;;;;;;;;5073692;28;20205;-87
2023/02/26 13:29:03;;;;;;;2.08;1.90;;;;;;;;;;5072563;28;20197;-88
2023/02/26 13:31:36;;;;;;;1.02;0.93;;;;;;;;;;5072639;28;20272;-88
2023/02/26 13:34:06;;;;;;;24.30;16.77;;;;;;;;;;5072531;28;20213;-88
2023/02/26 13:36:39;;;;;;;8.40;5.10;;;;;;;;;;5072460;28;20612;-88
2023/02/26 13:39:32;;;;;;;3.38;2.25;;;;;;;;;;5072933;28;20212;-87
2023/02/26 13:42:08;;;;;;;4.32;2.83;;;;;;;;;;5072428;28;20259;-87
2023/02/26 13:44:49;;;;;;;2.90;2.65;;;;;;;;;;5073106;28;20248;-87
2023/02/26 13:47:41;;;;;;;3.03;2.05;;;;;;;;;;5072483;28;20380;-87
2023/02/26 13:50:26;;;;;;;1.17;1.08;;;;;;;;;;5072588;28;20498;-87
2023/02/26 13:52:56;;;;;;;3.88;2.65;;;;;;;;;;5072324;28;20240;-88
2023/02/26 13:55:44;;;;;;;1.23;1.13;;;;;;;;;;5072871;28;20277;-87
2023/02/26 13:58:38;;;;;;;2.92;2.00;;;;;;;;;;5072927;28;20186;-87
2023/02/26 14:01:10;;;;;;;1.10;1.10;;;;;;;;;;5072836;28;20205;-87
2023/02/26 14:03:45;;;;;;;1.63;0.88;;;;;;;;;;5072895;28;20308;-87
2023/02/26 14:06:42;;;;;;;0.73;0.70;;;;;;;;;;5073183;28;20184;-87
2023/02/26 14:09:45;;;;;;;1.20;1.08;;;;;;;;;;5082405;22;20256;-83
2023/02/26 14:12:36;;;;;;;1.52;1.42;;;;;;;;;;5054253;28;20212;-82
2023/02/26 14:15:42;;;;;;;2.53;1.30;;;;;;;;;;5054472;28;20224;-84
2023/02/26 14:18:35;;;;;;;1.50;1.40;;;;;;;;;;5055107;28;20324;-82
2023/02/26 14:21:49;;;;;;;1.00;1.00;;;;;;;;;;5053314;28;20201;-83
2023/02/26 14:24:22;;;;;;;1.90;1.70;;;;;;;;;;5052330;28;20202;-81
2023/02/26 14:26:51;;;;;;;1.40;1.30;;;;;;;;;;5040126;28;20746;-81
2023/02/26 14:29:26;;;;;;;1.30;0.90;;;;;;;;;;5029921;28;20594;-81
2023/02/26 14:32:13;;;;;;;1.08;1.08;;;;;;;;;;5036410;28;20201;-82
2023/02/26 14:34:50;;;;;;;0.88;0.88;;;;;;;;;;5037136;28;20230;-82
2023/02/26 14:37:22;;;;;;;1.00;0.90;;;;;;;;;;5037708;28;20251;-80
2023/02/26 14:39:55;;;;;;;0.77;0.77;;;;;;;;;;5036056;28;20293;-81
2023/02/26 14:42:29;;;;;;;1.95;1.75;;;;;;;;;;5036251;28;20204;-81
2023/02/26 14:45:17;;;;;;;1.27;1.27;;;;;;;;;;5036277;28;20281;-81
2023/02/26 14:47:46;;;;;;;1.20;1.00;;;;;;;;;;5036507;28;20244;-81
2023/02/26 14:50:18;;;;;;;2.25;1.70;;;;;;;;;;5035335;28;20589;-81
2023/02/26 14:53:39;;;;;;;1.98;1.10;;;;;;;;;;5035678;28;20210;-82
2023/02/26 14:56:12;;;;;;;1.23;1.10;;;;;;;;;;5033632;28;20216;-82
2023/02/26 14:59:07;;;;;;;3.40;2.13;;;;;;;;;;5035478;28;20226;-84
2023/02/26 15:01:48;;;;;;;1.20;1.10;;;;;;;;;;5036125;28;20285;-80
2023/02/26 15:04:47;;;;;;;1.17;0.95;;;;;;;;;;5035869;28;20297;-82
2023/02/26 15:07:38;;;;;;;1.00;0.88;;;;;;;;;;5027634;28;20222;-80
2023/02/26 15:10:27;;;;;;;1.13;0.77;;;;;;;;;;5034813;28;20255;-80
2023/02/26 15:13:13;;;;;;;0.98;0.60;;;;;;;;;;5035114;28;20212;-81
2023/02/26 15:15:50;;;;;;;0.85;0.77;;;;;;;;;;5035737;28;20222;-82
2023/02/26 15:18:44;;;;;;;0.63;0.60;;;;;;;;;;5034319;28;20244;-80
2023/02/26 15:21:20;;;;;;;1.10;0.98;;;;;;;;;;5035735;28;20202;-80
2023/02/26 15:23:51;;;;;;;1.27;1.00;;;;;;;;;;5035738;28;20213;-82
2023/02/26 15:26:22;;;;;;;2.70;1.85;;;;;;;;;;5046391;28;20745;-82
2023/02/26 15:28:51;;;;;;;1.15;1.08;;;;;;;;;;5053833;28;20221;-81
2023/02/26 15:31:21;;;;;;;1.40;1.23;;;;;;;;;;5054992;28;20194;-83